Time;durP1;ratioP1;P1;durP2;ratioP2;P2;SDS_P1;SDS_P2;PMS_P1;PMS_P2;Temp;Humidity;BMP_temperature;BMP_pressure;BME280_temperature;BME280_humidity;BME280_pressure;Samples;Min_cycle;Max_cycle;Signal;HPM_P1;HPM_P2
2023/02/03 00:01:03;;;;;;;13.13;7.43;;;;;;;7.59;100.00;102232.59;5010963;28;20041;-78
2023/02/03 00:03:29;;;;;;;18.40;7.32;;;;;;;7.54;100.00;102232.06;5004037;28;20045;-77
2023/02/03 00:05:55;;;;;;;20.75;8.07;;;;;;;7.53;100.00;102225.25;4986320;28;20037;-78
2023/02/03 00:08:21;;;;;;;17.98;7.10;;;;;;;7.66;100.00;102216.69;4996590;28;20038;-77
2023/02/03 00:10:47;;;;;;;14.45;7.03;;;;;;;7.59;100.00;102216.25;4987562;28;20029;-78
2023/02/03 00:13:13;;;;;;;16.35;6.80;;;;;;;7.60;100.00;102212.75;5014725;28;20052;-77
2023/02/03 00:15:38;;;;;;;19.60;7.07;;;;;;;7.49;100.00;102207.47;4993114;28;20053;-78
2023/02/03 00:18:04;;;;;;;17.95;7.25;;;;;;;7.49;100.00;102207.47;4996119;28;20485;-78
2023/02/03 00:20:30;;;;;;;24.20;7.70;;;;;;;7.59;100.00;102206.78;5016601;28;20038;-77
2023/02/03 00:23:05;;;;;;;13.35;6.70;;;;;;;7.60;100.00;102199.84;5017882;28;20076;-78
2023/02/03 00:25:31;;;;;;;12.05;6.60;;;;;;;7.51;100.00;102211.59;5013485;28;20034;-78
2023/02/03 00:27:57;;;;;;;21.58;6.50;;;;;;;7.55;100.00;102225.16;5004134;28;20037;-78
2023/02/03 00:30:22;;;;;;;14.45;5.90;;;;;;;7.50;100.00;102216.91;4989424;28;20037;-79
2023/02/03 00:32:48;;;;;;;18.23;6.20;;;;;;;7.48;100.00;102206.66;5007047;28;20091;-76
2023/02/03 00:35:14;;;;;;;13.00;6.70;;;;;;;7.50;100.00;102198.81;5016970;28;20045;-78
2023/02/03 00:37:39;;;;;;;12.15;5.38;;;;;;;7.60;100.00;102182.59;5006485;28;20041;-78
2023/02/03 00:40:06;;;;;;;13.73;5.55;;;;;;;7.55;100.00;102176.94;4984326;28;20036;-78
2023/02/03 00:42:33;;;;;;;12.63;5.20;;;;;;;7.55;100.00;102187.28;4989371;28;20034;-78
2023/02/03 00:44:59;;;;;;;12.38;5.05;;;;;;;7.57;100.00;102180.25;4989483;28;20030;-78
2023/02/03 00:47:24;;;;;;;19.88;5.35;;;;;;;7.57;100.00;102189.72;4986280;28;20100;-78
2023/02/03 00:49:50;;;;;;;19.77;6.13;;;;;;;7.45;100.00;102183.63;4990828;28;20030;-78
2023/02/03 00:52:15;;;;;;;11.75;4.97;;;;;;;7.68;100.00;102176.09;5023350;28;20064;-78
2023/02/03 00:54:41;;;;;;;13.25;5.13;;;;;;;7.77;100.00;102190.97;5007283;28;20099;-77
2023/02/03 00:57:06;;;;;;;15.20;5.47;;;;;;;7.62;100.00;102199.75;5025770;28;20559;-78
2023/02/03 00:59:31;;;;;;;13.23;4.88;;;;;;;7.59;100.00;102203.34;5019074;28;20033;-78
2023/02/03 01:01:57;;;;;;;14.98;4.95;;;;;;;7.59;100.00;102206.78;4990780;28;20037;-79
2023/02/03 01:04:23;;;;;;;15.98;5.75;;;;;;;7.66;100.00;102214.13;5005317;28;20025;-76
2023/02/03 01:06:48;;;;;;;13.45;4.75;;;;;;;7.67;100.00;102214.00;5016227;28;20080;-79
2023/02/03 01:09:14;;;;;;;11.13;4.63;;;;;;;7.70;100.00;102218.13;5002203;28;20375;-77
2023/02/03 01:11:39;;;;;;;20.65;6.32;;;;;;;7.66;100.00;102222.69;4989354;28;20036;-77
2023/02/03 01:14:06;;;;;;;17.63;4.90;;;;;;;7.68;100.00;102223.41;5003780;28;20633;-78
2023/02/03 01:16:36;;;;;;;15.77;4.82;;;;;;;7.68;100.00;102233.72;5003757;28;20508;-77
2023/02/03 01:19:02;;;;;;;15.02;4.78;;;;;;;7.69;100.00;102250.88;4998228;28;20034;-78
2023/02/03 01:21:28;;;;;;;18.25;5.38;;;;;;;7.60;100.00;102241.16;5004006;28;20502;-77
2023/02/03 01:23:54;;;;;;;11.32;4.93;;;;;;;7.55;100.00;102238.91;4989470;28;20026;-78
2023/02/03 01:26:21;;;;;;;21.40;6.22;;;;;;;7.58;100.00;102246.41;4987419;28;20040;-78
2023/02/03 01:28:55;;;;;;;16.00;4.88;;;;;;;7.56;100.00;102245.69;5012928;28;20045;-78
2023/02/03 01:31:24;;;;;;;15.50;4.93;;;;;;;7.68;100.00;102241.47;5007286;28;20036;-78
2023/02/03 01:33:52;;;;;;;10.40;4.43;;;;;;;7.69;100.00;102253.47;5001404;28;20602;-77
2023/02/03 01:36:19;;;;;;;15.45;4.80;;;;;;;7.65;100.00;102256.34;5004477;28;20123;-78
2023/02/03 01:38:45;;;;;;;11.93;5.13;;;;;;;7.67;100.00;102257.09;5020810;28;20037;-75
2023/02/03 01:41:14;;;;;;;10.05;5.03;;;;;;;7.67;100.00;102267.41;4992771;28;20052;-78
2023/02/03 01:43:42;;;;;;;15.35;4.63;;;;;;;7.67;100.00;102257.09;5009065;28;20048;-78
2023/02/03 01:46:34;;;;;;;15.40;5.07;;;;;;;7.65;100.00;102262.34;5004430;28;20037;-78
2023/02/03 01:49:08;;;;;;;11.98;4.70;;;;;;;7.60;100.00;102261.81;5008194;28;20041;-78
2023/02/03 01:51:37;;;;;;;13.98;4.95;;;;;;;7.63;100.00;102256.47;5003435;28;20037;-78
2023/02/03 01:54:03;;;;;;;14.75;5.45;;;;;;;7.69;100.00;102242.31;5014222;28;20514;-78
2023/02/03 01:56:35;;;;;;;9.32;4.90;;;;;;;7.69;100.00;102232.81;5005007;28;20037;-78
2023/02/03 01:59:01;;;;;;;15.10;5.25;;;;;;;7.66;100.00;102245.09;4992553;28;20128;-78
2023/02/03 02:01:30;;;;;;;13.90;5.22;;;;;;;7.70;100.00;102243.97;5007261;28;20033;-78
2023/02/03 02:04:00;;;;;;;17.60;4.60;;;;;;;7.71;100.00;102241.28;5004121;28;20065;-78
2023/02/03 02:06:25;;;;;;;13.27;5.03;;;;;;;7.71;100.00;102253.38;5004084;28;20042;-78
2023/02/03 02:08:52;;;;;;;10.82;4.80;;;;;;;7.76;100.00;102257.31;5006357;28;20037;-77
2023/02/03 02:11:21;;;;;;;15.48;4.28;;;;;;;7.77;100.00;102256.34;5007452;28;20131;-77
2023/02/03 02:13:50;;;;;;;11.20;4.63;;;;;;;7.73;100.00;102248.94;5017589;28;20111;-77
2023/02/03 02:16:53;;;;;;;13.13;4.30;;;;;;;7.78;100.00;102245.09;5003764;28;20044;-78
2023/02/03 02:19:46;;;;;;;17.02;4.20;;;;;;;7.71;100.00;102235.28;5024827;28;20044;-78
2023/02/03 02:22:20;;;;;;;17.10;4.30;;;;;;;7.79;100.00;102226.09;5016921;28;20034;-78
2023/02/03 02:25:27;;;;;;;15.05;4.05;;;;;;;7.84;100.00;102223.22;5006557;28;20037;-77
2023/02/03 02:27:52;;;;;;;15.95;3.97;;;;;;;7.87;100.00;102217.81;5004943;28;20491;-78
2023/02/03 02:30:48;;;;;;;14.00;3.72;;;;;;;7.83;100.00;102211.22;5006919;28;20049;-78
2023/02/03 02:33:52;;;;;;;11.38;4.15;;;;;;;7.82;100.00;102204.41;5003774;28;20048;-78
2023/02/03 02:36:32;;;;;;;12.00;4.70;;;;;;;7.85;100.00;102198.19;4980552;28;20044;-78
2023/02/03 02:39:24;;;;;;;13.55;3.85;;;;;;;7.69;100.00;102207.00;5010432;28;20116;-78
2023/02/03 02:42:27;;;;;;;13.55;5.15;;;;;;;7.80;100.00;102211.44;4999589;28;20714;-78
2023/02/03 02:45:03;;;;;;;10.43;4.60;;;;;;;7.70;100.00;102203.47;4988687;28;20140;-77
2023/02/03 02:47:29;;;;;;;17.63;4.88;;;;;;;7.85;100.00;102200.78;5003494;28;20180;-77
2023/02/03 02:50:09;;;;;;;15.10;6.03;;;;;;;7.82;100.00;102191.50;4994045;28;20034;-78
2023/02/03 02:52:39;;;;;;;15.85;4.93;;;;;;;7.70;100.00;102194.91;5016337;28;20063;-78
2023/02/03 02:55:15;;;;;;;11.88;6.13;;;;;;;7.74;100.00;102201.50;4985057;28;20076;-78
2023/02/03 02:57:43;;;;;;;14.55;6.00;;;;;;;7.75;100.00;102196.25;5022394;28;20096;-77
2023/02/03 03:00:10;;;;;;;16.75;6.47;;;;;;;7.79;100.00;102195.09;5006874;28;20120;-78
2023/02/03 03:02:36;;;;;;;12.98;5.07;;;;;;;7.70;100.00;102206.03;4989157;28;20052;-78
2023/02/03 03:05:05;;;;;;;15.85;5.82;;;;;;;7.83;100.00;102197.50;4991268;28;20037;-77
2023/02/03 03:07:40;;;;;;;14.27;5.63;;;;;;;7.77;100.00;102184.06;5003936;28;20502;-77
2023/02/03 03:10:12;;;;;;;17.58;6.28;;;;;;;7.71;100.00;102176.72;5022659;28;20029;-78
2023/02/03 03:12:44;;;;;;;13.55;6.65;;;;;;;7.77;100.00;102176.31;5010291;28;20038;-78
2023/02/03 03:15:17;;;;;;;13.20;6.32;;;;;;;7.82;100.00;102177.75;5005412;28;20033;-78
2023/02/03 03:17:47;;;;;;;15.93;6.37;;;;;;;7.80;100.00;102189.03;4991678;28;20041;-78
2023/02/03 03:20:19;;;;;;;14.00;5.80;;;;;;;7.86;100.00;102187.78;5023325;28;20368;-78
2023/02/03 03:22:50;;;;;;;16.38;6.57;;;;;;;7.85;100.00;102188.69;5006648;28;20037;-78
2023/02/03 03:25:19;;;;;;;13.93;6.15;;;;;;;7.85;100.00;102198.19;5005960;28;20394;-78
2023/02/03 03:27:58;;;;;;;12.75;6.22;;;;;;;7.82;100.00;102203.56;5008521;28;20116;-78
2023/02/03 03:30:28;;;;;;;14.35;6.38;;;;;;;7.81;100.00;102207.91;5022979;28;20398;-77
2023/02/03 03:32:55;;;;;;;14.65;5.90;;;;;;;7.70;100.00;102203.47;5005356;28;20053;-77
2023/02/03 03:35:22;;;;;;;13.70;6.78;;;;;;;7.79;100.00;102205.44;5011513;28;20026;-77
2023/02/03 03:37:57;;;;;;;20.60;6.68;;;;;;;7.70;100.00;102205.22;4992538;28;20052;-77
2023/02/03 03:40:41;;;;;;;13.70;5.85;;;;;;;7.83;100.00;102206.06;5020050;28;20095;-78
2023/02/03 03:43:17;;;;;;;17.98;6.53;;;;;;;7.80;100.00;102204.50;5007500;28;20073;-78
2023/02/03 03:45:51;;;;;;;14.20;5.88;;;;;;;7.75;100.00;102198.81;5025851;28;20611;-79
2023/02/03 03:48:25;;;;;;;14.18;5.30;;;;;;;7.82;100.00;102204.41;5009511;28;20074;-77
2023/02/03 03:51:01;;;;;;;14.35;5.90;;;;;;;7.88;100.00;102198.81;5008138;28;20029;-79
2023/02/03 03:53:29;;;;;;;14.95;6.03;;;;;;;7.89;100.00;102209.97;5010070;28;20072;-77
2023/02/03 03:55:58;;;;;;;17.23;5.20;;;;;;;7.93;100.00;102199.34;4991723;28;20029;-78
2023/02/03 03:58:28;;;;;;;13.50;5.63;;;;;;;7.83;100.00;102187.16;5000215;28;20026;-77
2023/02/03 04:00:59;;;;;;;15.75;5.35;;;;;;;7.85;100.00;102186.09;5006993;28;20063;-77
2023/02/03 04:03:31;;;;;;;13.80;6.60;;;;;;;7.87;100.00;102173.09;5006358;28;20049;-78
2023/02/03 04:05:57;;;;;;;18.35;4.70;;;;;;;7.81;100.00;102176.94;4991463;28;20442;-78
2023/02/03 04:08:22;;;;;;;10.85;3.95;;;;;;;7.84;100.00;102168.16;5007320;28;20030;-77
2023/02/03 04:10:48;;;;;;;10.23;3.90;;;;;;;7.79;100.00;102179.59;5029255;28;20029;-77
2023/02/03 04:13:14;;;;;;;10.60;3.88;;;;;;;7.91;100.00;102198.63;5019100;28;20111;-78
2023/02/03 04:15:40;;;;;;;9.05;3.30;;;;;;;7.79;100.00;102178.78;5022888;28;20022;-78
2023/02/03 04:18:07;;;;;;;15.52;3.45;;;;;;;7.74;100.00;102186.00;5005136;28;20104;-78
2023/02/03 04:20:33;;;;;;;12.60;3.40;;;;;;;7.73;100.00;102171.47;4995283;28;20061;-78
2023/02/03 04:22:59;;;;;;;8.07;3.25;;;;;;;7.81;100.00;102179.50;5004229;28;20029;-77
2023/02/03 04:25:25;;;;;;;18.85;4.57;;;;;;;7.76;100.00;102185.00;5017663;28;20495;-77
2023/02/03 04:27:51;;;;;;;15.00;3.30;;;;;;;7.81;100.00;102182.09;4998207;28;20536;-78
2023/02/03 04:30:17;;;;;;;12.60;2.88;;;;;;;7.74;100.00;102180.84;5012122;28;20029;-79
2023/02/03 04:32:44;;;;;;;12.43;3.53;;;;;;;7.79;100.00;102196.88;5004457;28;20076;-78
2023/02/03 04:35:10;;;;;;;12.30;4.38;;;;;;;7.84;100.00;102201.75;5019628;28;20033;-77
2023/02/03 04:37:35;;;;;;;6.88;2.83;;;;;;;7.78;100.00;102195.22;5024923;28;20044;-77
2023/02/03 04:40:01;;;;;;;11.20;3.38;;;;;;;7.82;100.00;102200.97;4992932;28;20037;-77
2023/02/03 04:42:27;;;;;;;10.02;2.97;;;;;;;7.76;100.00;102203.06;5004540;28;20132;-78
2023/02/03 04:44:52;;;;;;;10.13;2.50;;;;;;;7.77;100.00;102190.97;5021510;28;20034;-78
2023/02/03 04:47:18;;;;;;;11.20;3.22;;;;;;;7.78;100.00;102188.31;5001223;28;20529;-78
2023/02/03 04:49:44;;;;;;;10.20;2.65;;;;;;;7.79;100.00;102189.13;5015913;28;20034;-78
2023/02/03 04:52:10;;;;;;;10.00;2.58;;;;;;;7.74;100.00;102170.50;5010534;28;20044;-81
2023/02/03 04:54:35;;;;;;;11.85;2.65;;;;;;;7.80;100.00;102177.88;5008013;28;20025;-78
2023/02/03 04:57:01;;;;;;;9.25;2.63;;;;;;;7.69;100.00;102190.69;5002953;28;20080;-78
2023/02/03 04:59:27;;;;;;;8.82;2.20;;;;;;;7.86;100.00;102169.69;4993534;28;20077;-78
2023/02/03 05:01:52;;;;;;;10.50;2.55;;;;;;;7.78;100.00;102161.66;4998664;28;20387;-77
2023/02/03 05:04:18;;;;;;;9.30;2.30;;;;;;;7.91;100.00;102190.03;5013153;28;20041;-78
2023/02/03 05:06:43;;;;;;;15.10;3.22;;;;;;;7.77;100.00;102185.81;4992482;28;21008;-78
2023/02/03 05:09:09;;;;;;;10.52;2.75;;;;;;;7.82;100.00;102183.75;5009095;28;20037;-78
2023/02/03 05:11:35;;;;;;;12.25;2.63;;;;;;;7.78;100.00;102182.31;5001036;28;20498;-79
2023/02/03 05:14:00;;;;;;;8.38;1.88;;;;;;;7.72;100.00;102180.97;4990529;28;20128;-79
2023/02/03 05:16:25;;;;;;;8.13;2.10;;;;;;;7.90;100.00;102176.31;4990655;28;20438;-78
2023/02/03 05:18:51;;;;;;;11.80;2.40;;;;;;;7.82;100.00;102176.00;4987202;28;20037;-78
2023/02/03 05:21:17;;;;;;;11.63;2.50;;;;;;;7.87;100.00;102173.91;5008052;28;20041;-77
2023/02/03 05:23:42;;;;;;;12.68;2.78;;;;;;;7.98;100.00;102158.50;5004046;28;20038;-77
2023/02/03 05:26:08;;;;;;;9.32;2.33;;;;;;;7.91;100.00;102144.38;5000591;28;20037;-78
2023/02/03 05:28:33;;;;;;;13.75;2.10;;;;;;;7.95;99.80;102153.56;4988199;28;20042;-78
2023/02/03 05:31:00;;;;;;;11.77;2.00;;;;;;;7.98;99.74;102155.94;4994461;28;20030;-76
2023/02/03 05:33:26;;;;;;;12.05;2.08;;;;;;;7.90;99.99;102160.00;5006525;28;20033;-78
2023/02/03 05:35:51;;;;;;;11.18;2.20;;;;;;;7.93;99.70;102160.59;5008402;28;20036;-78
2023/02/03 05:38:17;;;;;;;8.35;2.45;;;;;;;7.95;99.62;102165.66;5007955;28;20033;-78
2023/02/03 05:43:27;;;;;;;9.10;1.60;;;;;;;7.98;99.14;102171.41;5018392;28;21333;-79
2023/02/03 05:45:53;;;;;;;8.88;2.42;;;;;;;7.87;99.70;102180.84;4986936;28;20376;-78
2023/02/03 05:48:18;;;;;;;14.75;2.20;;;;;;;7.88;99.48;102179.94;5007379;28;20040;-78
2023/02/03 05:50:44;;;;;;;10.73;1.90;;;;;;;7.91;99.74;102196.03;5007853;28;20079;-78
2023/02/03 05:53:10;;;;;;;8.00;1.98;;;;;;;7.96;99.43;102191.38;5009843;28;20050;-78
2023/02/03 05:55:36;;;;;;;11.48;1.85;;;;;;;8.09;98.94;102206.88;4992132;28;20025;-77
2023/02/03 05:58:03;;;;;;;14.52;1.73;;;;;;;8.01;99.10;102192.84;4993616;28;20037;-79
2023/02/03 06:00:29;;;;;;;13.35;2.38;;;;;;;7.95;99.07;102173.41;5008394;28;20057;-78
2023/02/03 06:02:57;;;;;;;4.57;1.38;;;;;;;7.90;99.23;102181.47;5009517;28;20038;-78
2023/02/03 06:05:24;;;;;;;8.40;1.77;;;;;;;7.94;99.29;102189.84;5007356;28;20033;-78
2023/02/03 06:07:49;;;;;;;7.90;1.55;;;;;;;7.85;99.34;102196.44;5010604;28;20041;-78
2023/02/03 06:10:16;;;;;;;7.22;1.30;;;;;;;7.86;100.00;102192.94;5013464;28;20042;-78
2023/02/03 06:12:41;;;;;;;5.22;1.40;;;;;;;7.94;99.33;102193.22;5002674;28;20076;-78
2023/02/03 06:15:08;;;;;;;8.88;1.63;;;;;;;7.99;98.86;102188.59;4992710;28;20057;-78
2023/02/03 06:17:35;;;;;;;9.40;1.73;;;;;;;7.93;98.65;102176.09;5013539;28;20045;-78
2023/02/03 06:20:02;;;;;;;16.83;6.70;;;;;;;7.87;99.45;102188.59;4998184;28;20052;-78
2023/02/03 06:22:28;;;;;;;14.45;4.13;;;;;;;7.92;99.22;102191.69;4989297;28;20044;-78
2023/02/03 06:24:53;;;;;;;15.73;5.05;;;;;;;7.96;98.54;102191.38;4992525;28;20030;-78
2023/02/03 06:27:19;;;;;;;29.17;8.60;;;;;;;8.04;98.46;102192.59;5024184;28;20042;-79
2023/02/03 06:29:44;;;;;;;21.00;6.63;;;;;;;7.96;98.47;102187.97;5007842;28;20035;-78
2023/02/03 06:32:09;;;;;;;12.35;5.15;;;;;;;8.02;98.41;102192.72;5004974;28;20037;-78
2023/02/03 06:34:35;;;;;;;13.32;3.55;;;;;;;7.95;98.27;102194.91;5006890;28;20521;-79
2023/02/03 06:37:00;;;;;;;10.43;2.72;;;;;;;8.04;98.57;102182.28;5008405;28;20053;-78
2023/02/03 06:39:26;;;;;;;9.48;2.00;;;;;;;8.11;97.94;102173.19;5005792;28;20037;-78
2023/02/03 06:41:52;;;;;;;7.40;2.55;;;;;;;8.01;97.92;102175.56;5024494;28;20033;-78
2023/02/03 06:44:17;;;;;;;10.52;3.08;;;;;;;8.06;97.83;102170.06;5006412;28;20034;-78
2023/02/03 06:46:43;;;;;;;11.30;2.45;;;;;;;8.06;97.95;102172.66;5021340;28;20100;-76
2023/02/03 06:49:09;;;;;;;11.10;3.10;;;;;;;7.97;98.51;102169.78;5007400;28;20108;-78
2023/02/03 06:51:35;;;;;;;12.32;3.42;;;;;;;8.02;98.55;102176.38;5017251;28;20041;-77
2023/02/03 06:54:02;;;;;;;12.27;2.90;;;;;;;7.98;98.10;102170.59;5013088;28;20104;-78
2023/02/03 06:56:28;;;;;;;9.32;2.50;;;;;;;8.01;98.34;102174.75;5022859;28;20545;-77
2023/02/03 06:58:54;;;;;;;6.38;1.90;;;;;;;7.95;98.59;102183.75;4996022;28;20049;-78
2023/02/03 07:01:19;;;;;;;13.85;5.10;;;;;;;7.99;98.66;102185.19;4989437;28;20025;-79
2023/02/03 07:03:45;;;;;;;11.93;3.70;;;;;;;7.95;99.00;102170.84;5012799;28;20049;-79
2023/02/03 07:06:12;;;;;;;13.15;3.17;;;;;;;8.01;98.78;102177.34;5021718;28;20037;-79
2023/02/03 07:08:37;;;;;;;6.63;2.00;;;;;;;8.11;98.11;102178.34;4991380;28;20518;-78
2023/02/03 07:11:03;;;;;;;14.35;2.25;;;;;;;8.05;98.28;102181.34;5012665;28;20025;-79
2023/02/03 07:13:28;;;;;;;12.32;2.80;;;;;;;8.05;98.32;102182.19;5000429;28;20034;-79
2023/02/03 07:15:54;;;;;;;14.93;2.63;;;;;;;7.91;98.87;102190.03;5012723;28;20033;-78
2023/02/03 07:18:23;;;;;;;6.20;2.10;;;;;;;8.04;98.78;102190.03;5009306;28;20037;-79
2023/02/03 07:20:49;;;;;;;12.02;2.17;;;;;;;7.99;98.91;102196.34;5015328;28;20034;-79
2023/02/03 07:23:14;;;;;;;6.93;1.83;;;;;;;7.99;99.12;102191.19;5024026;28;20124;-78
2023/02/03 07:25:40;;;;;;;8.10;2.20;;;;;;;8.11;98.62;102184.31;5007391;28;20088;-79
2023/02/03 07:28:05;;;;;;;17.02;2.80;;;;;;;8.09;98.88;102183.59;4992409;28;20049;-76
2023/02/03 07:30:31;;;;;;;9.73;2.17;;;;;;;8.13;98.40;102191.97;5007509;28;20083;-79
2023/02/03 07:32:56;;;;;;;16.67;6.90;;;;;;;8.12;98.00;102195.50;4995632;28;20312;-79
2023/02/03 07:35:22;;;;;;;26.13;6.47;;;;;;;8.08;98.31;102199.22;5005285;28;20044;-79
2023/02/03 07:37:47;;;;;;;50.63;15.13;;;;;;;7.97;98.74;102200.78;5015188;28;20034;-78
2023/02/03 07:40:14;;;;;;;29.00;10.10;;;;;;;8.10;98.37;102208.53;5010342;28;20041;-78
2023/02/03 07:42:45;;;;;;;31.80;11.18;;;;;;;8.11;98.22;102197.25;5009269;28;20115;-78
2023/02/03 07:45:11;;;;;;;49.67;15.32;;;;;;;8.13;98.20;102187.63;5007554;28;20056;-79
2023/02/03 07:47:37;;;;;;;64.10;21.90;;;;;;;8.18;98.00;102197.66;5025266;28;20117;-78
2023/02/03 07:50:03;;;;;;;74.07;24.52;;;;;;;8.13;98.13;102194.56;5007630;28;20041;-78
2023/02/03 07:52:29;;;;;;;21.90;7.75;;;;;;;8.06;98.79;102196.75;5004704;28;20634;-78
2023/02/03 07:54:54;;;;;;;28.00;10.20;;;;;;;8.02;99.25;102203.03;5010615;28;20033;-76
2023/02/03 07:57:20;;;;;;;36.78;12.35;;;;;;;8.09;98.95;102191.34;4994035;28;20037;-79
2023/02/03 07:59:45;;;;;;;16.27;6.72;;;;;;;8.00;98.96;102181.66;5008612;28;20046;-79
2023/02/03 08:02:11;;;;;;;20.02;7.07;;;;;;;8.09;98.63;102193.94;4992512;28;20046;-78
2023/02/03 08:04:37;;;;;;;13.77;4.25;;;;;;;8.11;98.82;102196.44;5012688;28;20033;-77
2023/02/03 08:07:03;;;;;;;11.77;4.05;;;;;;;8.11;98.50;102210.16;5007202;28;20038;-78
2023/02/03 08:09:28;;;;;;;23.48;8.32;;;;;;;8.14;98.30;102219.47;5023078;28;20096;-79
2023/02/03 08:11:54;;;;;;;20.48;9.27;;;;;;;8.19;98.23;102209.63;4985544;28;20032;-78
2023/02/03 08:14:19;;;;;;;17.83;6.38;;;;;;;8.14;98.33;102219.47;5002529;28;20026;-80
2023/02/03 08:16:45;;;;;;;12.18;6.18;;;;;;;8.16;98.05;102215.03;5024165;28;20037;-78
2023/02/03 08:19:11;;;;;;;13.65;2.67;;;;;;;8.17;98.30;102225.28;5009983;28;20723;-77
2023/02/03 08:21:36;;;;;;;9.27;2.05;;;;;;;8.14;98.71;102243.56;5017084;28;20694;-77
2023/02/03 08:24:01;;;;;;;7.95;2.15;;;;;;;8.12;98.77;102234.25;4993991;28;20052;-78
2023/02/03 08:26:27;;;;;;;12.98;4.03;;;;;;;8.17;99.12;102245.09;5008381;28;20056;-78
2023/02/03 08:28:52;;;;;;;10.38;4.28;;;;;;;8.15;98.50;102252.13;4988668;28;20045;-77
2023/02/03 08:31:18;;;;;;;8.80;2.20;;;;;;;8.19;98.60;102258.72;4993689;28;20053;-75
2023/02/03 08:33:43;;;;;;;6.40;2.47;;;;;;;8.22;98.46;102247.38;5005936;28;20030;-78
2023/02/03 08:36:10;;;;;;;11.88;3.47;;;;;;;8.22;98.18;102247.38;5007174;28;20494;-76
2023/02/03 08:38:36;;;;;;;18.88;4.00;;;;;;;8.19;98.26;102235.47;5007562;28;20046;-78
2023/02/03 08:41:11;;;;;;;6.10;3.42;;;;;;;8.21;98.24;102237.97;4991246;28;20071;-78
2023/02/03 08:43:37;;;;;;;9.15;2.20;;;;;;;8.25;97.91;102245.41;5006971;28;20111;-77
2023/02/03 08:46:07;;;;;;;4.75;2.58;;;;;;;8.16;98.54;102230.53;5007648;28;20482;-77
2023/02/03 08:48:33;;;;;;;7.32;2.30;;;;;;;8.27;98.58;102240.97;5020925;28;20171;-75
2023/02/03 08:50:59;;;;;;;7.00;2.47;;;;;;;8.28;98.91;102252.13;5022348;28;20120;-77
2023/02/03 08:53:24;;;;;;;9.13;3.00;;;;;;;8.24;99.82;102253.25;4995460;28;20095;-78
2023/02/03 08:55:50;;;;;;;9.23;3.33;;;;;;;8.18;100.00;102255.31;5011090;28;20030;-78
2023/02/03 08:58:16;;;;;;;9.38;3.00;;;;;;;8.16;100.00;102253.78;4990545;28;20038;-76
2023/02/03 09:00:41;;;;;;;10.43;3.45;;;;;;;8.10;100.00;102254.19;5025217;28;20041;-77
2023/02/03 09:03:07;;;;;;;13.15;3.42;;;;;;;8.03;100.00;102271.06;4999784;28;22054;-78
2023/02/03 09:05:33;;;;;;;5.85;3.70;;;;;;;8.01;100.00;102266.00;5004672;28;20084;-75
2023/02/03 09:07:58;;;;;;;8.40;3.80;;;;;;;8.02;100.00;102262.47;5004746;28;20096;-77
2023/02/03 09:10:24;;;;;;;11.07;4.38;;;;;;;8.02;100.00;102271.97;5007741;28;20372;-78
2023/02/03 09:12:49;;;;;;;10.00;4.45;;;;;;;7.95;100.00;102262.06;5007770;28;20107;-76
2023/02/03 09:15:15;;;;;;;10.75;4.95;;;;;;;7.91;100.00;102268.38;4987199;28;20026;-76
2023/02/03 09:17:40;;;;;;;8.85;4.50;;;;;;;7.87;100.00;102273.81;4990753;28;22506;-77
2023/02/03 09:20:07;;;;;;;9.63;5.00;;;;;;;7.97;100.00;102264.53;5011678;28;20041;-77
2023/02/03 09:22:33;;;;;;;15.07;6.50;;;;;;;7.94;100.00;102267.31;5021017;28;20139;-80
2023/02/03 09:24:58;;;;;;;12.43;5.15;;;;;;;7.87;100.00;102269.47;5004616;28;20112;-78
2023/02/03 09:27:24;;;;;;;14.00;6.00;;;;;;;7.74;100.00;102276.38;5004493;28;20044;-77
2023/02/03 09:29:49;;;;;;;19.60;7.60;;;;;;;7.81;100.00;102267.31;5005664;28;20030;-78
2023/02/03 09:32:15;;;;;;;52.38;18.10;;;;;;;7.78;100.00;102262.38;5011027;28;20567;-78
2023/02/03 09:34:40;;;;;;;38.45;15.63;;;;;;;7.85;100.00;102275.69;5004700;28;20029;-74
2023/02/03 09:37:07;;;;;;;34.15;17.92;;;;;;;7.85;100.00;102273.09;5004108;28;20103;-76
2023/02/03 09:39:32;;;;;;;22.58;8.40;;;;;;;7.82;100.00;102270.72;5019403;28;20478;-78
2023/02/03 09:42:43;;;;;;;15.00;8.73;;;;;;;7.86;100.00;102260.09;4992636;28;22939;-78
2023/02/03 09:45:29;;;;;;;19.85;9.85;;;;;;;7.75;100.00;102272.88;5006949;28;20108;-76
2023/02/03 09:48:18;;;;;;;30.75;14.57;;;;;;;7.73;100.00;102277.34;4995536;28;20065;-76
2023/02/03 09:50:45;;;;;;;28.70;13.30;;;;;;;7.75;100.00;102275.47;5006241;28;20056;-77
2023/02/03 09:53:20;;;;;;;22.45;11.38;;;;;;;7.81;100.00;102269.91;5002612;28;20405;-78
2023/02/03 09:55:47;;;;;;;14.55;8.52;;;;;;;7.76;100.00;102274.53;4996121;28;20022;-79
2023/02/03 09:58:19;;;;;;;17.73;8.40;;;;;;;7.67;100.00;102277.75;4991632;28;20383;-78
2023/02/03 10:00:55;;;;;;;16.75;8.48;;;;;;;7.73;100.00;102278.16;5020698;28;20044;-78
2023/02/03 10:03:44;;;;;;;19.05;8.55;;;;;;;7.66;100.00;102274.31;4992936;28;20049;-78
2023/02/03 10:06:35;;;;;;;19.58;9.40;;;;;;;7.79;100.00;102292.41;5003031;28;20068;-78
2023/02/03 10:09:10;;;;;;;20.52;9.60;;;;;;;7.77;100.00;102294.28;5002914;28;20049;-75
2023/02/03 10:12:08;;;;;;;22.25;11.38;;;;;;;7.75;100.00;102303.88;5023345;28;20071;-79
2023/02/03 10:15:04;;;;;;;22.30;11.18;;;;;;;7.64;100.00;102298.59;4993482;28;20048;-77
2023/02/03 10:17:36;;;;;;;21.02;12.20;;;;;;;7.72;100.00;102293.75;5016921;28;20099;-78
2023/02/03 10:20:15;;;;;;;21.33;10.13;;;;;;;7.77;100.00;102295.09;5003449;28;20091;-77
2023/02/03 10:22:47;;;;;;;22.77;10.90;;;;;;;7.69;100.00;102288.78;5011348;28;20045;-78
2023/02/03 10:25:19;;;;;;;20.77;10.60;;;;;;;7.70;100.00;102282.69;5009977;28;20038;-77
2023/02/03 10:27:48;;;;;;;25.33;10.95;;;;;;;7.74;100.00;102281.56;5025726;28;20053;-76
2023/02/03 10:30:19;;;;;;;28.77;12.10;;;;;;;7.71;100.00;102285.19;5005428;28;20056;-78
2023/02/03 10:32:46;;;;;;;19.13;10.43;;;;;;;7.75;100.00;102290.97;5020021;28;20095;-78
2023/02/03 10:35:12;;;;;;;21.73;11.68;;;;;;;7.64;100.00;102286.50;5022243;28;20037;-78
2023/02/03 10:37:45;;;;;;;18.83;10.10;;;;;;;7.66;100.00;102291.56;5020060;28;20807;-78
2023/02/03 10:40:14;;;;;;;24.33;11.23;;;;;;;7.72;100.00;102280.81;5023877;28;20459;-76
2023/02/03 10:45:26;;;;;;;21.55;9.98;;;;;;;7.83;100.00;102283.53;5017985;28;20113;-78
2023/02/03 10:47:54;;;;;;;15.63;10.13;;;;;;;7.86;100.00;102272.19;4989194;28;20068;-78
2023/02/03 10:50:22;;;;;;;22.60;10.52;;;;;;;7.82;100.00;102278.47;4990496;28;22396;-78
2023/02/03 10:52:48;;;;;;;19.83;10.75;;;;;;;7.87;100.00;102279.81;5007357;28;20049;-77
2023/02/03 10:55:25;;;;;;;23.92;10.60;;;;;;;7.97;100.00;102273.13;5013938;28;20528;-78
2023/02/03 10:57:53;;;;;;;17.10;10.55;;;;;;;8.08;100.00;102279.31;5014443;28;20049;-77
2023/02/03 11:00:29;;;;;;;20.08;10.35;;;;;;;8.05;100.00;102280.34;5011462;28;20514;-78
2023/02/03 11:03:06;;;;;;;22.58;11.32;;;;;;;8.05;100.00;102279.53;5003987;28;20042;-78
2023/02/03 11:05:32;;;;;;;39.83;15.52;;;;;;;8.06;100.00;102265.66;4995249;28;20022;-75
2023/02/03 11:07:59;;;;;;;54.38;20.58;;;;;;;8.07;100.00;102264.75;5011632;28;20041;-78
2023/02/03 11:10:29;;;;;;;52.10;21.58;;;;;;;8.08;100.00;102276.72;5026649;28;21002;-77
2023/02/03 11:13:23;;;;;;;44.45;18.08;;;;;;;7.98;100.00;102272.16;5008801;28;20408;-78
2023/02/03 11:15:53;;;;;;;38.50;14.73;;;;;;;8.09;100.00;102266.28;5007359;28;20688;-78
2023/02/03 11:19:01;;;;;;;57.65;20.30;;;;;;;8.11;100.00;102277.34;5009343;28;20046;-78
2023/02/03 11:21:42;;;;;;;73.47;26.50;;;;;;;8.09;100.00;102273.22;4992853;28;20131;-79
2023/02/03 11:24:16;;;;;;;39.38;16.73;;;;;;;8.15;100.00;102275.38;5011305;28;20148;-78
2023/02/03 11:26:54;;;;;;;37.63;17.42;;;;;;;8.19;100.00;102276.81;5023251;28;20037;-78
2023/02/03 11:29:27;;;;;;;29.65;15.40;;;;;;;8.21;100.00;102285.28;5014439;28;20026;-78
2023/02/03 11:31:55;;;;;;;;;;;;;;;8.14;100.00;102284.91;5005491;28;20390;-79
2023/02/03 11:34:28;;;;;;;14.70;9.10;;;;;;;8.27;100.00;102286.63;5011784;28;19932;-78